Time;durP1;ratioP1;P1;durP2;ratioP2;P2;SDS_P1;SDS_P2;PMS_P1;PMS_P2;Temp;Humidity;BMP_temperature;BMP_pressure;BME280_temperature;BME280_humidity;BME280_pressure;Samples;Min_cycle;Max_cycle;Signal;HPM_P1;HPM_P2
2022/09/01 00:01:20;;;;;;;2.83;0.40;;;;;;;19.32;45.10;98731.88;5091825;28;20506;-65
2022/09/01 00:03:51;;;;;;;1.88;0.50;;;;;;;19.34;45.02;98735.16;5092165;28;20042;-64
2022/09/01 00:06:22;;;;;;;1.35;0.57;;;;;;;19.31;45.01;98732.88;5086097;28;20039;-65
2022/09/01 00:08:52;;;;;;;6.95;0.60;;;;;;;19.31;44.94;98731.03;5096365;28;20397;-65
2022/09/01 00:11:19;;;;;;;1.00;0.30;;;;;;;19.32;44.95;98729.19;5091150;28;20039;-65
2022/09/01 00:13:45;;;;;;;1.02;0.35;;;;;;;19.30;44.92;98729.38;5091515;28;20066;-67
2022/09/01 00:16:12;;;;;;;4.53;1.25;;;;;;;19.24;45.29;98729.31;5093430;28;20071;-66
2022/09/01 00:18:40;;;;;;;1.58;0.55;;;;;;;19.24;44.96;98726.66;5094772;28;20050;-65
2022/09/01 00:21:08;;;;;;;0.65;0.40;;;;;;;19.21;45.32;98725.19;5091902;28;20046;-65
2022/09/01 00:23:33;;;;;;;2.35;0.70;;;;;;;19.17;44.99;98732.81;5092530;28;20039;-65
2022/09/01 00:25:59;;;;;;;2.90;0.47;;;;;;;19.13;45.15;98741.41;5092846;28;20069;-65
2022/09/01 00:28:25;;;;;;;1.60;0.52;;;;;;;19.05;45.23;98731.69;5091723;28;20515;-65
2022/09/01 00:30:50;;;;;;;1.95;0.32;;;;;;;19.05;45.47;98732.53;5092190;28;20483;-65
2022/09/01 00:33:16;;;;;;;2.20;0.40;;;;;;;19.09;45.39;98734.81;5089749;28;20039;-64
2022/09/01 00:35:41;;;;;;;0.93;0.30;;;;;;;19.07;45.47;98735.00;5091942;28;20137;-64
2022/09/01 00:38:07;;;;;;;0.47;0.40;;;;;;;19.02;45.69;98734.78;5091201;28;20036;-65
2022/09/01 00:40:32;;;;;;;0.68;0.22;;;;;;;19.06;45.43;98738.69;5091307;28;20392;-66
2022/09/01 00:42:59;;;;;;;0.80;0.20;;;;;;;19.05;45.40;98734.34;5091073;28;20076;-65
2022/09/01 00:45:25;;;;;;;0.82;0.30;;;;;;;19.02;45.45;98732.91;5092247;28;20043;-65
2022/09/01 00:47:50;;;;;;;0.50;0.38;;;;;;;19.02;45.28;98735.59;5091391;28;20032;-65
2022/09/01 00:50:17;;;;;;;1.70;0.40;;;;;;;19.04;45.40;98735.41;5089645;28;20483;-63
2022/09/01 00:52:50;;;;;;;1.85;0.30;;;;;;;19.00;45.26;98728.78;5091782;28;20039;-65
2022/09/01 00:55:29;;;;;;;1.13;0.70;;;;;;;19.00;45.41;98734.13;5092507;28;20040;-66
2022/09/01 00:57:55;;;;;;;0.63;0.30;;;;;;;18.95;45.34;98736.56;5091969;28;20495;-64
2022/09/01 01:00:24;;;;;;;1.40;0.30;;;;;;;18.90;45.55;98735.25;5101546;28;20402;-65
2022/09/01 01:02:59;;;;;;;3.10;0.40;;;;;;;18.83;45.42;98742.44;5099272;28;20050;-66
2022/09/01 01:05:31;;;;;;;0.80;0.73;;;;;;;18.79;45.71;98748.38;5091670;28;20032;-64
2022/09/01 01:07:58;;;;;;;4.53;0.20;;;;;;;18.87;45.72;98738.34;5095200;28;20060;-64
2022/09/01 01:10:25;;;;;;;1.80;0.22;;;;;;;19.03;45.66;98744.47;5095893;28;20036;-65
2022/09/01 01:12:51;;;;;;;4.53;0.55;;;;;;;19.19;45.58;98735.28;5093839;28;20032;-65
2022/09/01 01:15:18;;;;;;;0.80;0.40;;;;;;;19.29;45.54;98733.06;5094034;28;20035;-64
2022/09/01 01:17:44;;;;;;;1.10;0.40;;;;;;;19.40;44.96;98738.94;5098094;28;20549;-65
2022/09/01 01:23:09;;;;;;;3.15;0.50;;;;;;;19.54;44.76;98737.13;5091238;28;20391;-65
2022/09/01 01:25:49;;;;;;;1.73;0.22;;;;;;;19.57;45.02;98728.69;5090484;28;20047;-65
2022/09/01 01:28:22;;;;;;;3.40;1.20;;;;;;;19.60;44.85;98729.09;5093629;28;20123;-64
2022/09/01 01:30:55;;;;;;;0.35;0.25;;;;;;;19.65;44.78;98725.81;5093631;28;20036;-64
2022/09/01 01:33:24;;;;;;;0.70;0.50;;;;;;;19.67;44.84;98727.28;5094013;28;20490;-64
2022/09/01 01:35:51;;;;;;;0.82;0.20;;;;;;;19.71;44.67;98729.56;5094042;28;20429;-64
2022/09/01 01:38:19;;;;;;;0.75;0.30;;;;;;;19.73;44.74;98730.19;5092857;28;20403;-65
2022/09/01 01:40:45;;;;;;;2.00;0.22;;;;;;;19.75;44.38;98720.94;5091871;28;20414;-64
2022/09/01 01:43:21;;;;;;;0.55;0.30;;;;;;;19.76;44.31;98721.75;5093674;28;20027;-65
2022/09/01 01:45:50;;;;;;;1.17;0.22;;;;;;;19.77;44.46;98721.56;5093914;28;20043;-64
2022/09/01 01:48:21;;;;;;;2.45;0.30;;;;;;;19.77;44.44;98715.34;5088819;28;20048;-64
2022/09/01 01:50:48;;;;;;;1.48;0.20;;;;;;;19.75;44.26;98720.94;5093769;28;20089;-64
2022/09/01 01:53:15;;;;;;;0.25;0.15;;;;;;;19.74;44.78;98727.31;5093586;28;20499;-64
2022/09/01 01:55:42;;;;;;;0.80;0.20;;;;;;;19.73;44.12;98717.63;5093409;28;20372;-64
2022/09/01 01:58:10;;;;;;;0.52;0.20;;;;;;;19.74;44.50;98721.94;5093154;28;20036;-64
2022/09/01 02:00:37;;;;;;;0.20;0.20;;;;;;;19.73;44.24;98716.75;5093013;28;20085;-64
2022/09/01 02:03:04;;;;;;;0.40;0.22;;;;;;;19.71;44.28;98725.03;5093389;28;20043;-64
2022/09/01 02:05:32;;;;;;;2.08;0.20;;;;;;;19.74;44.37;98729.16;5092040;28;20036;-64
2022/09/01 02:08:07;;;;;;;0.60;0.35;;;;;;;19.77;44.38;98726.94;5093594;28;20028;-64
2022/09/01 02:10:39;;;;;;;0.45;0.20;;;;;;;19.78;44.30;98730.44;5090046;28;20499;-64
2022/09/01 02:13:10;;;;;;;0.17;0.17;;;;;;;19.77;44.14;98728.75;5091987;28;20122;-64
2022/09/01 02:15:43;;;;;;;0.65;0.22;;;;;;;19.76;44.30;98730.63;5093462;28;20119;-65
2022/09/01 02:18:20;;;;;;;0.25;0.20;;;;;;;19.73;43.98;98722.97;5094576;28;20089;-65
2022/09/01 02:20:49;;;;;;;2.92;0.30;;;;;;;19.72;44.35;98726.69;5092520;28;20035;-64
2022/09/01 02:23:16;;;;;;;0.50;0.17;;;;;;;19.72;43.93;98724.00;5094418;28;20040;-64
2022/09/01 02:25:44;;;;;;;2.10;0.40;;;;;;;19.70;44.07;98712.63;5094621;28;20046;-65
2022/09/01 02:28:14;;;;;;;0.90;0.30;;;;;;;19.71;44.11;98725.03;5094249;28;20135;-65
2022/09/01 02:30:58;;;;;;;0.40;0.20;;;;;;;19.72;43.99;98723.16;5094338;28;20043;-64
2022/09/01 02:33:27;;;;;;;3.13;0.25;;;;;;;19.73;43.86;98731.03;5079449;28;20036;-64
2022/09/01 02:36:06;;;;;;;0.20;0.13;;;;;;;19.74;43.70;98727.31;5091387;28;20040;-65
2022/09/01 02:38:32;;;;;;;0.25;0.15;;;;;;;19.72;44.14;98734.75;5081801;28;20475;-65
2022/09/01 02:41:00;;;;;;;0.85;0.20;;;;;;;19.69;44.33;98720.91;5077959;28;20035;-65
2022/09/01 02:43:27;;;;;;;0.70;0.20;;;;;;;19.69;43.97;98727.09;5094406;28;20062;-65
2022/09/01 02:45:58;;;;;;;0.43;0.13;;;;;;;19.67;44.20;98726.44;5094347;28;20483;-65
2022/09/01 02:48:27;;;;;;;0.82;0.30;;;;;;;19.67;44.22;98734.50;5094110;28;20062;-65
2022/09/01 02:50:58;;;;;;;3.13;0.38;;;;;;;19.67;44.01;98721.09;5091202;28;20499;-65
2022/09/01 02:53:24;;;;;;;0.38;0.20;;;;;;;19.67;43.95;98723.78;5073937;28;20105;-65
2022/09/01 02:55:50;;;;;;;0.22;0.10;;;;;;;19.71;43.83;98718.81;5084737;28;20153;-65
2022/09/01 02:58:18;;;;;;;0.65;0.20;;;;;;;19.70;43.59;98723.38;5094094;28;20032;-65
2022/09/01 03:00:45;;;;;;;2.45;0.20;;;;;;;19.69;43.90;98720.91;5093587;28;20035;-65
2022/09/01 03:03:11;;;;;;;1.45;0.38;;;;;;;19.69;43.94;98723.59;5094258;28;20027;-65
2022/09/01 03:05:38;;;;;;;0.55;0.20;;;;;;;19.72;43.79;98717.78;5093092;28;20105;-65
2022/09/01 03:08:09;;;;;;;1.80;0.25;;;;;;;19.71;44.05;98722.34;5092695;28;20443;-65
2022/09/01 03:10:40;;;;;;;1.67;0.47;;;;;;;19.69;44.17;98723.59;5093442;28;20040;-66
2022/09/01 03:13:09;;;;;;;0.25;0.20;;;;;;;19.70;44.19;98723.38;5093552;28;20214;-65
2022/09/01 03:15:36;;;;;;;0.43;0.30;;;;;;;19.70;43.89;98718.00;5093409;28;20035;-64
2022/09/01 03:18:04;;;;;;;0.80;0.40;;;;;;;19.73;43.84;98719.44;5109014;28;20073;-65
2022/09/01 03:20:35;;;;;;;0.60;0.30;;;;;;;19.75;43.83;98720.94;5093122;28;20032;-64
2022/09/01 03:23:03;;;;;;;0.45;0.25;;;;;;;19.76;43.63;98727.09;5087552;28;20077;-64
2022/09/01 03:25:30;;;;;;;1.60;0.38;;;;;;;19.76;43.73;98722.59;5093490;28;20523;-64
2022/09/01 03:27:58;;;;;;;0.50;0.30;;;;;;;19.75;43.80;98722.75;5092772;28;20056;-64
2022/09/01 03:30:25;;;;;;;0.40;0.20;;;;;;;19.75;43.67;98726.28;5094010;28;20035;-64
2022/09/01 03:32:51;;;;;;;0.75;0.30;;;;;;;19.74;43.74;98718.41;5092789;28;20388;-64
2022/09/01 03:35:16;;;;;;;0.88;0.40;;;;;;;19.71;43.81;98726.88;5092972;28;20042;-64
2022/09/01 03:37:43;;;;;;;0.22;0.20;;;;;;;19.72;43.81;98724.00;5091422;28;20036;-64
2022/09/01 03:40:10;;;;;;;0.10;0.10;;;;;;;19.73;43.78;98727.50;5093332;28;20407;-64
2022/09/01 03:42:37;;;;;;;0.57;0.40;;;;;;;19.74;43.63;98732.69;5092803;28;20138;-64
2022/09/01 03:45:08;;;;;;;1.00;0.20;;;;;;;19.76;43.61;98737.84;5092559;28;20040;-64
2022/09/01 03:47:39;;;;;;;0.73;0.32;;;;;;;19.78;43.51;98730.44;5092679;28;20088;-64
2022/09/01 03:50:11;;;;;;;0.35;0.20;;;;;;;19.80;43.30;98736.41;5093203;28;20111;-64
2022/09/01 03:52:38;;;;;;;0.20;0.20;;;;;;;19.82;43.45;98726.31;5090924;28;20502;-64
2022/09/01 03:55:04;;;;;;;0.47;0.20;;;;;;;19.87;43.29;98731.09;5091029;28;20036;-64
2022/09/01 03:57:29;;;;;;;0.63;0.32;;;;;;;19.87;43.07;98736.47;5093099;28;20043;-64
2022/09/01 03:59:55;;;;;;;0.32;0.10;;;;;;;19.89;43.24;98737.09;5092915;28;20042;-64
2022/09/01 04:02:21;;;;;;;1.33;1.15;;;;;;;19.90;42.84;98734.22;5092295;28;20402;-65
2022/09/01 04:04:47;;;;;;;3.50;0.57;;;;;;;19.94;42.72;98734.63;5093082;28;20452;-64
2022/09/01 04:07:12;;;;;;;0.40;0.30;;;;;;;19.94;42.89;98734.63;5092501;28;20063;-65
2022/09/01 04:09:38;;;;;;;0.45;0.20;;;;;;;19.96;42.77;98728.03;5090641;28;20035;-65
2022/09/01 04:12:07;;;;;;;0.70;0.30;;;;;;;19.98;42.93;98733.19;5092863;28;20044;-64
2022/09/01 04:14:34;;;;;;;0.20;0.17;;;;;;;20.00;42.95;98717.72;5092490;28;20073;-65
2022/09/01 04:19:43;;;;;;;0.73;0.35;;;;;;;19.99;42.84;98739.41;5092506;28;20042;-65
2022/09/01 04:22:13;;;;;;;1.02;0.38;;;;;;;19.98;42.64;98730.50;5074156;28;20066;-65
2022/09/01 04:24:41;;;;;;;1.95;0.47;;;;;;;19.99;43.10;98726.81;5090571;28;20497;-65
2022/09/01 04:27:08;;;;;;;0.15;0.15;;;;;;;19.97;42.79;98728.84;5091989;28;20106;-65
2022/09/01 04:29:33;;;;;;;0.50;0.20;;;;;;;19.96;42.91;98729.88;5091922;28;20055;-65
2022/09/01 04:32:05;;;;;;;0.10;0.10;;;;;;;19.95;42.68;98736.28;5092204;28;20048;-65
2022/09/01 04:34:37;;;;;;;0.70;0.30;;;;;;;19.93;42.48;98732.97;5092185;28;20032;-65
2022/09/01 04:37:22;;;;;;;;;;;;;;;19.82;42.54;98732.50;5084196;28;20570;-65
2022/09/01 04:39:52;;;;;;;0.20;0.10;;;;;;;19.83;42.71;98734.16;5090870;28;19986;-65
2022/09/01 04:42:22;;;;;;;0.52;0.30;;;;;;;19.82;42.88;98737.06;5095616;28;20032;-66
2022/09/01 04:44:47;;;;;;;0.38;0.20;;;;;;;19.84;42.63;98735.00;5096092;28;20044;-66
2022/09/01 04:47:18;;;;;;;1.85;0.30;;;;;;;19.87;42.33;98731.09;5096395;28;20040;-66
2022/09/01 04:49:47;;;;;;;2.45;0.20;;;;;;;19.88;42.26;98732.75;5096341;28;20514;-66
2022/09/01 04:52:13;;;;;;;1.98;0.30;;;;;;;19.86;42.65;98732.09;5096076;28;20063;-65
2022/09/01 04:54:39;;;;;;;0.70;0.20;;;;;;;19.87;42.70;98741.84;5076764;28;20141;-64
2022/09/01 04:57:07;;;;;;;1.00;0.20;;;;;;;19.87;42.83;98739.97;5095047;28;20142;-64
2022/09/01 04:59:33;;;;;;;0.68;0.30;;;;;;;19.86;42.46;98738.28;5096223;28;20495;-65
2022/09/01 05:02:00;;;;;;;0.75;0.40;;;;;;;19.86;42.26;98740.97;5095743;28;20082;-64
2022/09/01 05:04:32;;;;;;;1.33;0.30;;;;;;;19.85;41.93;98731.28;5096327;28;20383;-65
2022/09/01 05:06:59;;;;;;;0.57;0.38;;;;;;;19.88;42.00;98743.50;5095181;28;20081;-65
2022/09/01 05:09:34;;;;;;;0.45;0.30;;;;;;;19.87;42.29;98739.97;5095486;28;20107;-65
2022/09/01 05:12:09;;;;;;;0.28;0.20;;;;;;;19.86;42.35;98743.66;5090000;28;20059;-65
2022/09/01 05:14:47;;;;;;;0.10;0.10;;;;;;;19.89;42.35;98740.59;5095842;28;20043;-65
2022/09/01 05:17:13;;;;;;;0.38;0.38;;;;;;;19.91;42.44;98748.47;5095674;28;20921;-66
2022/09/01 05:19:46;;;;;;;0.63;0.20;;;;;;;19.92;42.00;98748.25;5110473;28;20032;-65
2022/09/01 05:22:13;;;;;;;1.08;0.20;;;;;;;19.93;42.01;98752.59;5116276;28;20088;-65
2022/09/01 05:24:38;;;;;;;0.82;0.38;;;;;;;19.94;41.79;98756.09;5115771;28;20023;-66
2022/09/01 05:27:05;;;;;;;0.43;0.20;;;;;;;19.94;41.96;98748.91;5099925;28;20054;-65
2022/09/01 05:29:31;;;;;;;0.60;0.28;;;;;;;19.94;41.92;98753.41;5095063;28;20059;-65
2022/09/01 05:31:57;;;;;;;0.20;0.20;;;;;;;19.92;42.09;98752.81;5094990;28;20536;-65
2022/09/01 05:34:28;;;;;;;0.32;0.20;;;;;;;19.92;42.28;98753.63;5095344;28;20081;-65
2022/09/01 05:36:56;;;;;;;0.75;0.45;;;;;;;19.93;42.25;98751.75;5095691;28;20035;-65
2022/09/01 05:39:22;;;;;;;1.65;0.20;;;;;;;19.91;42.08;98754.66;5095177;28;20051;-65
2022/09/01 05:41:48;;;;;;;1.08;0.40;;;;;;;19.92;41.92;98755.50;5093726;28;20028;-65
2022/09/01 05:44:15;;;;;;;0.38;0.25;;;;;;;19.91;42.20;98751.97;5095470;28;20038;-65
2022/09/01 05:46:42;;;;;;;0.75;0.30;;;;;;;19.90;41.68;98750.31;5095714;28;20406;-65
2022/09/01 05:49:12;;;;;;;0.40;0.30;;;;;;;19.92;41.73;98752.81;5094451;28;20032;-65
2022/09/01 05:51:41;;;;;;;0.40;0.25;;;;;;;19.91;41.66;98751.97;5094834;28;20085;-65
2022/09/01 05:54:08;;;;;;;0.40;0.30;;;;;;;19.90;41.52;98754.88;5077411;28;20040;-65
2022/09/01 05:56:37;;;;;;;1.75;0.30;;;;;;;19.91;41.70;98743.91;5092799;28;20357;-64
2022/09/01 05:59:03;;;;;;;1.00;0.28;;;;;;;19.91;41.69;98738.56;5092944;28;20040;-67
2022/09/01 06:01:32;;;;;;;0.20;0.20;;;;;;;19.93;41.79;98744.56;5094698;28;20437;-66
2022/09/01 06:04:02;;;;;;;1.23;0.30;;;;;;;19.97;41.54;98750.34;5094697;28;20028;-67
2022/09/01 06:06:36;;;;;;;0.73;0.27;;;;;;;19.97;41.24;98751.19;5094260;28;20490;-66
2022/09/01 06:09:07;;;;;;;1.15;0.25;;;;;;;19.97;41.32;98753.03;5094554;28;20315;-67
2022/09/01 06:11:33;;;;;;;0.57;0.25;;;;;;;19.96;41.34;98751.38;5111523;28;20041;-67
2022/09/01 06:13:59;;;;;;;2.08;0.25;;;;;;;19.95;41.12;98747.03;5097120;28;20042;-67
2022/09/01 06:16:27;;;;;;;0.30;0.22;;;;;;;19.94;40.96;98753.41;5093855;28;20036;-66
2022/09/01 06:18:56;;;;;;;0.63;0.25;;;;;;;19.93;41.01;98743.72;5094141;28;20563;-67
2022/09/01 06:21:23;;;;;;;0.73;0.40;;;;;;;19.94;40.80;98751.59;5093860;28;20130;-67
2022/09/01 06:23:50;;;;;;;3.13;1.15;;;;;;;19.95;40.73;98757.75;5094196;28;20089;-68
2022/09/01 06:26:38;;;;;;;1.35;0.60;;;;;;;19.93;40.60;98743.72;5093193;28;20058;-67
2022/09/01 06:29:08;;;;;;;3.08;0.65;;;;;;;19.90;40.67;98744.13;5086003;28;20170;-66
2022/09/01 06:31:38;;;;;;;0.85;0.50;;;;;;;19.88;40.92;98746.19;5073624;28;20081;-65
2022/09/01 06:34:06;;;;;;;1.42;0.57;;;;;;;19.90;40.95;98744.13;5073849;28;20131;-66
2022/09/01 06:36:35;;;;;;;1.75;0.50;;;;;;;19.93;40.77;98743.72;5083794;28;20040;-67
2022/09/01 06:39:02;;;;;;;1.60;0.63;;;;;;;19.96;41.17;98746.84;5094021;28;20040;-66
2022/09/01 06:41:30;;;;;;;2.63;0.70;;;;;;;20.04;41.23;98745.00;5093826;28;20032;-66
2022/09/01 06:43:56;;;;;;;1.60;0.50;;;;;;;20.07;40.78;98750.78;5089319;28;20036;-65
2022/09/01 06:46:26;;;;;;;1.00;0.32;;;;;;;20.07;40.80;98748.09;5093458;28;20417;-66
2022/09/01 06:48:52;;;;;;;1.27;0.30;;;;;;;20.04;40.65;98753.03;5093896;28;20505;-67
2022/09/01 06:51:21;;;;;;;1.88;0.45;;;;;;;20.01;40.69;98743.53;5093894;28;20115;-67
2022/09/01 06:53:51;;;;;;;1.80;0.30;;;;;;;20.00;40.84;98754.50;5094196;28;20047;-67
2022/09/01 06:56:17;;;;;;;1.63;0.80;;;;;;;19.95;40.69;98750.56;5094023;28;20031;-66
2022/09/01 06:58:48;;;;;;;0.95;0.30;;;;;;;19.93;41.05;98755.28;5094442;28;20032;-67
2022/09/01 07:01:16;;;;;;;0.90;0.40;;;;;;;19.95;40.59;98758.59;5079578;28;20497;-67
2022/09/01 07:03:43;;;;;;;0.60;0.38;;;;;;;19.96;40.51;98757.59;5112817;28;20046;-67
2022/09/01 07:06:09;;;;;;;0.93;0.45;;;;;;;19.97;40.72;98761.09;5113858;28;20031;-67
2022/09/01 07:08:38;;;;;;;0.95;0.40;;;;;;;19.99;40.67;98758.22;5106568;28;20387;-67
2022/09/01 07:11:07;;;;;;;1.05;0.40;;;;;;;19.94;40.65;98750.72;5093488;28;20028;-67
2022/09/01 07:13:34;;;;;;;2.63;0.30;;;;;;;19.97;40.91;98764.59;5094268;28;20081;-67
2022/09/01 07:16:03;;;;;;;1.27;0.47;;;;;;;20.01;40.92;98772.25;5090918;28;20028;-67
2022/09/01 07:18:30;;;;;;;3.53;0.52;;;;;;;19.98;40.80;98754.69;5093306;28;20482;-64
2022/09/01 07:20:56;;;;;;;1.77;0.30;;;;;;;19.96;41.09;98771.00;5093623;28;20055;-65
2022/09/01 07:23:23;;;;;;;1.42;0.40;;;;;;;19.95;41.01;98758.59;5093721;28;20451;-65
2022/09/01 07:25:54;;;;;;;0.77;0.40;;;;;;;19.97;41.06;98769.97;5096434;28;20118;-66
2022/09/01 07:28:22;;;;;;;1.15;0.45;;;;;;;19.98;41.01;98773.47;5112998;28;20047;-66
2022/09/01 07:30:51;;;;;;;1.48;0.40;;;;;;;20.00;40.97;98765.25;5089814;28;20126;-66
2022/09/01 07:33:19;;;;;;;0.70;0.45;;;;;;;20.03;40.63;98759.44;5081815;28;20028;-66
2022/09/01 07:35:46;;;;;;;0.57;0.38;;;;;;;20.05;40.73;98763.59;5073060;28;20028;-67
2022/09/01 07:38:12;;;;;;;1.63;0.40;;;;;;;20.06;40.88;98762.56;5091822;28;20031;-67
2022/09/01 07:40:39;;;;;;;2.35;0.50;;;;;;;20.07;40.69;98761.50;5092653;28;20501;-67
2022/09/01 07:43:08;;;;;;;1.17;0.60;;;;;;;20.09;40.55;98769.38;5074832;28;20043;-66
2022/09/01 07:45:42;;;;;;;1.17;0.60;;;;;;;20.09;40.90;98764.84;5077607;28;20031;-66
2022/09/01 07:48:08;;;;;;;2.05;0.45;;;;;;;20.10;40.93;98769.19;5074663;28;20372;-67
2022/09/01 07:50:46;;;;;;;3.00;0.50;;;;;;;20.13;40.71;98770.66;5092627;28;20529;-65
2022/09/01 07:53:17;;;;;;;1.70;0.50;;;;;;;20.14;40.86;98764.25;5093098;28;20085;-65
2022/09/01 07:55:49;;;;;;;0.73;0.40;;;;;;;20.18;41.22;98778.09;5092304;28;20054;-65
2022/09/01 07:58:15;;;;;;;2.47;0.40;;;;;;;20.21;40.47;98764.28;5092600;28;20571;-66
2022/09/01 08:00:45;;;;;;;1.27;0.80;;;;;;;20.25;40.52;98773.56;5090761;28;20036;-65
2022/09/01 08:03:11;;;;;;;5.07;0.93;;;;;;;20.28;40.41;98781.22;5092473;28;20059;-66
2022/09/01 08:05:37;;;;;;;1.42;0.63;;;;;;;20.33;40.67;98765.31;5105197;28;20462;-66
2022/09/01 08:08:03;;;;;;;1.40;0.63;;;;;;;20.43;40.46;98781.88;5104740;28;20067;-66
2022/09/01 08:10:29;;;;;;;1.02;0.60;;;;;;;20.47;40.16;98760.78;5097196;28;20038;-66
2022/09/01 08:12:55;;;;;;;1.27;0.63;;;;;;;20.51;40.12;98771.97;5072399;28;20464;-66
2022/09/01 08:15:21;;;;;;;1.08;0.60;;;;;;;20.53;39.53;98769.88;5083149;28;20111;-66
2022/09/01 08:17:47;;;;;;;2.13;0.60;;;;;;;20.51;39.94;98772.78;5091016;28;20040;-66
2022/09/01 08:20:13;;;;;;;1.25;0.60;;;;;;;20.52;40.10;98774.44;5093088;28;20036;-65
2022/09/01 08:22:38;;;;;;;0.98;0.47;;;;;;;20.52;40.13;98765.53;5081843;28;20036;-67
2022/09/01 08:25:08;;;;;;;3.80;0.55;;;;;;;20.50;40.13;98768.44;5090027;28;20061;-67
2022/09/01 08:27:37;;;;;;;1.58;0.60;;;;;;;20.52;40.46;98766.38;5090720;28;20043;-67
2022/09/01 08:30:06;;;;;;;2.30;0.82;;;;;;;20.57;40.43;98776.53;5072113;28;20529;-67
2022/09/01 08:32:32;;;;;;;2.20;1.20;;;;;;;20.64;40.56;98773.84;5081521;28;20028;-66
2022/09/01 08:34:58;;;;;;;2.30;0.90;;;;;;;20.70;40.51;98771.16;5092486;28;20036;-67
2022/09/01 08:37:24;;;;;;;2.75;1.27;;;;;;;20.75;40.67;98789.38;5106037;28;20444;-66
2022/09/01 08:39:50;;;;;;;3.35;1.05;;;;;;;20.81;40.54;98793.09;5105406;28;20077;-67
2022/09/01 08:42:21;;;;;;;2.72;1.25;;;;;;;20.83;40.54;98785.66;5092336;28;20032;-67
2022/09/01 08:45:02;;;;;;;2.10;0.95;;;;;;;20.84;40.48;98781.94;5092067;28;20073;-64
2022/09/01 08:47:28;;;;;;;2.87;1.40;;;;;;;20.84;40.68;98792.69;5090240;28;20032;-64
2022/09/01 08:49:54;;;;;;;3.78;1.48;;;;;;;20.87;40.67;98786.91;5092300;28;20483;-65
2022/09/01 08:52:46;;;;;;;2.72;1.60;;;;;;;20.88;40.47;98786.69;5092025;28;20036;-66
2022/09/01 08:55:24;;;;;;;2.53;1.15;;;;;;;20.90;40.58;98794.56;5092476;28;20090;-64
2022/09/01 08:57:51;;;;;;;3.40;1.38;;;;;;;20.91;40.60;98790.84;5072245;28;20081;-65
2022/09/01 09:00:23;;;;;;;2.42;1.38;;;;;;;20.94;40.62;98801.19;5097298;28;20037;-65
2022/09/01 09:03:16;;;;;;;2.80;1.23;;;;;;;20.94;40.40;98793.13;5093588;28;20432;-64
2022/09/01 09:06:05;;;;;;;2.83;1.10;;;;;;;20.96;40.68;98801.78;5092409;28;20054;-64
2022/09/01 09:08:52;;;;;;;4.20;1.23;;;;;;;20.98;40.73;98797.03;5091870;28;20036;-65
2022/09/01 09:11:39;;;;;;;2.03;0.80;;;;;;;21.00;40.71;98796.84;5091481;28;20028;-65
2022/09/01 09:14:05;;;;;;;3.28;1.35;;;;;;;21.01;40.71;98809.25;5091785;28;20066;-69
2022/09/01 09:16:37;;;;;;;2.40;1.42;;;;;;;21.04;40.72;98809.66;5091516;28;20074;-65
2022/09/01 09:19:09;;;;;;;3.75;1.20;;;;;;;21.06;40.70;98803.25;5090047;28;20046;-65
2022/09/01 09:21:43;;;;;;;2.50;1.75;;;;;;;21.08;40.82;98806.56;5091839;28;20066;-65
2022/09/01 09:24:17;;;;;;;1.67;0.98;;;;;;;21.11;40.74;98803.44;5091303;28;20058;-70
2022/09/01 09:26:50;;;;;;;2.85;0.88;;;;;;;21.14;40.71;98811.94;5097432;28;20027;-68
2022/09/01 09:29:16;;;;;;;4.78;1.02;;;;;;;21.14;40.57;98814.63;5096341;28;20533;-69
2022/09/01 09:31:47;;;;;;;11.05;1.05;;;;;;;21.12;40.36;98815.88;5095495;28;20046;-66
2022/09/01 09:34:23;;;;;;;3.42;1.02;;;;;;;21.09;39.91;98819.81;5094710;28;20070;-66
2022/09/01 09:36:48;;;;;;;1.42;0.50;;;;;;;21.06;39.67;98828.28;5095355;28;20032;-66
2022/09/01 09:39:17;;;;;;;6.78;0.98;;;;;;;20.99;39.88;98822.09;5096579;28;20108;-67
2022/09/01 09:42:00;;;;;;;12.55;0.80;;;;;;;20.99;39.81;98827.47;5102311;28;20040;-67
2022/09/01 09:44:29;;;;;;;3.55;0.55;;;;;;;20.96;39.24;98820.63;5095047;28;20028;-65
2022/09/01 09:46:56;;;;;;;5.80;0.95;;;;;;;20.96;39.41;98820.63;5093941;28;20552;-67
2022/09/01 09:49:27;;;;;;;2.95;0.88;;;;;;;20.95;39.69;98821.69;5091377;28;20077;-66
2022/09/01 09:52:08;;;;;;;1.40;0.65;;;;;;;21.00;40.22;98824.56;5093511;28;20096;-67
2022/09/01 09:54:36;;;;;;;2.80;0.82;;;;;;;21.06;40.69;98830.16;5092030;28;20057;-67
2022/09/01 09:57:07;;;;;;;2.17;0.70;;;;;;;21.10;40.96;98834.91;5098418;28;20043;-68
2022/09/01 09:59:35;;;;;;;;;;;;;;;21.08;40.97;98833.47;5095087;28;20035;-68
2022/09/01 10:02:17;;;;;;;2.78;0.95;;;;;;;21.14;40.81;98840.69;5092613;28;19916;-68
2022/09/01 10:04:43;;;;;;;2.78;0.70;;;;;;;21.16;40.77;98839.47;5103060;28;20031;-68
2022/09/01 10:07:33;;;;;;;2.40;0.77;;;;;;;21.19;40.68;98838.22;5103099;28;20108;-67
2022/09/01 10:10:25;;;;;;;2.03;0.55;;;;;;;21.17;40.51;98841.13;5093394;28;20031;-66
2022/09/01 10:12:52;;;;;;;1.40;0.85;;;;;;;21.18;40.36;98844.63;5081549;28;20085;-67
2022/09/01 10:15:21;;;;;;;9.35;1.02;;;;;;;21.18;40.26;98841.94;5092368;28;20081;-67
2022/09/01 10:17:48;;;;;;;11.57;1.00;;;;;;;21.23;40.35;98841.31;5093332;28;20478;-67
2022/09/01 10:20:22;;;;;;;3.85;0.93;;;;;;;21.27;40.35;98850.63;5101149;28;20028;-65
2022/09/01 10:22:49;;;;;;;7.95;1.50;;;;;;;21.29;40.33;98843.19;5091924;28;20039;-66
2022/09/01 10:25:31;;;;;;;6.97;0.77;;;;;;;21.31;40.18;98846.50;5092472;28;20035;-67
2022/09/01 10:28:13;;;;;;;5.13;0.63;;;;;;;21.33;39.95;98855.16;5094219;28;20572;-66
2022/09/01 10:30:42;;;;;;;5.53;0.60;;;;;;;21.38;39.90;98854.56;5093720;28;20089;-67
2022/09/01 10:33:10;;;;;;;7.18;0.70;;;;;;;21.37;39.69;98848.34;5098663;28;20070;-67
2022/09/01 10:35:41;;;;;;;6.88;0.85;;;;;;;21.40;39.56;98847.94;5094700;28;20449;-68
2022/09/01 10:38:13;;;;;;;5.47;0.60;;;;;;;21.42;39.26;98847.72;5100863;28;20079;-68
2022/09/01 10:40:44;;;;;;;1.95;0.63;;;;;;;21.43;39.51;98863.66;5093636;28;20451;-68
2022/09/01 10:43:28;;;;;;;3.88;0.50;;;;;;;21.44;38.90;98853.72;5097689;28;20096;-67
2022/09/01 10:45:54;;;;;;;4.35;0.30;;;;;;;21.44;39.00;98857.25;5094057;28;20490;-68
2022/09/01 10:48:20;;;;;;;3.72;0.60;;;;;;;21.43;38.69;98855.59;5075441;28;20024;-68
2022/09/01 10:50:47;;;;;;;2.22;0.95;;;;;;;21.42;38.49;98855.78;5092957;28;20436;-68
2022/09/01 10:53:34;;;;;;;4.70;0.57;;;;;;;21.43;38.22;98854.75;5094299;28;20043;-68
2022/09/01 10:56:12;;;;;;;1.10;0.40;;;;;;;21.43;38.23;98857.44;5101270;28;20028;-68
2022/09/01 10:59:07;;;;;;;1.50;0.40;;;;;;;21.42;37.96;98850.41;5085940;28;20505;-68
2022/09/01 11:01:44;;;;;;;1.25;0.60;;;;;;;21.42;37.78;98855.78;5093005;28;20059;-67
2022/09/01 11:04:20;;;;;;;1.02;0.60;;;;;;;21.43;37.78;98849.38;5093522;28;20031;-68
2022/09/01 11:07:05;;;;;;;1.45;0.50;;;;;;;21.41;37.36;98848.75;5093362;28;20031;-67
2022/09/01 11:09:41;;;;;;;0.95;0.50;;;;;;;21.40;37.38;98849.78;5093196;28;20031;-67
2022/09/01 11:12:23;;;;;;;0.93;0.80;;;;;;;21.40;37.15;98863.25;5093108;28;20542;-68
2022/09/01 11:14:54;;;;;;;0.70;0.30;;;;;;;21.39;37.02;98862.41;5093539;28;20031;-68
2022/09/01 11:17:24;;;;;;;;;;;;;;;21.30;37.06;98861.00;5093221;28;20032;-68
2022/09/01 11:19:57;;;;;;;2.00;0.43;;;;;;;21.31;37.01;98854.56;5096668;28;19920;-68
2022/09/01 11:22:36;;;;;;;0.95;0.50;;;;;;;21.32;36.70;98854.34;5092899;28;20040;-68
2022/09/01 11:25:08;;;;;;;1.88;1.00;;;;;;;21.34;36.77;98857.66;5073193;28;20036;-68
2022/09/01 11:27:49;;;;;;;3.97;0.70;;;;;;;21.37;36.51;98850.22;5072938;28;20115;-68
2022/09/01 11:30:22;;;;;;;1.52;0.73;;;;;;;21.38;36.44;98846.50;5073181;28;20040;-69
2022/09/01 11:32:52;;;;;;;4.03;0.95;;;;;;;21.39;36.34;98848.16;5072775;28;20469;-69
2022/09/01 11:35:24;;;;;;;2.25;0.93;;;;;;;21.39;36.36;98846.28;5093344;28;20036;-70
2022/09/01 11:37:53;;;;;;;3.60;1.00;;;;;;;21.39;36.30;98848.16;5093276;28;20050;-69
2022/09/01 11:40:27;;;;;;;2.03;0.77;;;;;;;21.39;36.00;98846.28;5093175;28;20035;-68
2022/09/01 11:42:55;;;;;;;4.20;0.60;;;;;;;21.39;36.05;98840.09;5092852;28;20028;-68
2022/09/01 11:45:29;;;;;;;2.85;0.80;;;;;;;21.39;35.85;98853.53;5092868;28;20518;-68
2022/09/01 11:48:04;;;;;;;4.03;1.25;;;;;;;21.39;35.47;98845.47;5093007;28;20035;-68
2022/09/01 11:50:34;;;;;;;2.58;0.70;;;;;;;21.33;35.09;98844.41;5092993;28;20027;-68
2022/09/01 11:53:07;;;;;;;2.08;1.10;;;;;;;21.27;35.34;98831.81;5092972;28;20048;-68